Latest Weather Observations for Scoresby

IDV60901

Issued at 11:25 pm EST Thursday 24 April 2014 (issued every 10 minutes, with the page automatically refreshed every 10 minutes)

About weather observations | Map of Melbourne area stations | Latest observations for Melbourne area | Other Formats
Station Details ID: 086104 Name: SCORESBY RESEARCH INSTITUTE Lat: -37.87 Lon: 145.26 Height: 80.0 m
Data from the previous 72 hours. | See also: Recent months at Scoresby
Date/Time
EST
Tmp

°C
App
Tmp
°C
Dew
Point
°C
Rel
Hum
%
Delta-T

°C
Wind Press
QNH
hPa
Press
MSL
hPa
Rain
since
9 am
mm
Dir
 
Spd
km/h
Gust
km/h
Spd
kts
Gust
kts
24/11:00pm 6.7 5.7 5.5 92 0.5 CALM 0 0 0 0 - - 0.0
24/10:30pm 6.5 5.3 4.7 88 0.8 E 0 0 0 0 - - 0.0
24/10:00pm 7.4 6.3 5.2 86 1.0 CALM 0 0 0 0 - - 0.0
24/09:30pm 7.9 6.9 5.7 86 1.0 CALM 0 0 0 0 - - 0.0
24/09:00pm 8.2 7.2 5.5 83 1.2 CALM 0 0 0 0 - - 0.0
24/08:30pm 8.9 7.9 5.5 79 1.5 ESE 0 0 0 0 - - 0.0
24/08:00pm 9.6 8.6 5.8 77 1.7 CALM 0 0 0 0 - - 0.0
24/07:30pm 10.3 9.0 5.9 74 2.0 ESE 2 4 1 2 - - 0.0
24/07:00pm 10.6 9.6 5.8 72 2.2 CALM 0 0 0 0 - - 0.0
24/06:30pm 11.0 10.0 5.7 70 2.5 CALM 0 0 0 0 - - 0.0
24/06:00pm 11.7 9.9 5.3 65 3.0 SSW 4 7 2 4 - - 0.0
24/05:30pm 12.8 10.6 5.5 61 3.4 S 6 9 3 5 - - 0.0
24/05:00pm 13.8 10.6 4.9 55 4.2 SSW 11 19 6 10 - - 0.0
24/04:30pm 14.7 12.4 5.8 55 4.3 S 7 13 4 7 - - 0.0
24/04:00pm 15.2 12.4 5.1 51 4.8 SW 9 19 5 10 - - 0.0
24/03:30pm 14.9 11.8 5.4 53 4.5 SW 11 20 6 11 - - 0.0
24/03:00pm 16.0 12.3 4.4 46 5.4 SSW 13 22 7 12 - - 0.0
24/02:30pm 16.1 11.7 2.9 41 6.0 SSW 15 22 8 12 - - 0.0
24/02:00pm 16.2 12.0 3.6 43 5.8 SSW 15 28 8 15 - - 0.0
24/01:30pm 15.5 10.6 3.9 46 5.4 SW 19 33 10 18 - - 0.0
24/01:00pm 16.2 12.0 3.9 44 5.7 SW 15 24 8 13 - - 0.0
24/12:30pm 15.4 11.0 5.0 50 4.9 SW 17 28 9 15 - - 0.0
24/12:00pm 14.9 10.6 5.1 52 4.6 SW 17 33 9 18 - - 0.0
24/11:30am 14.5 11.3 6.8 60 3.8 SSW 13 28 7 15 - - 0.0
24/11:00am 14.9 12.2 8.8 67 3.1 SW 13 22 7 12 - - 0.0
24/10:30am 15.6 13.5 11.2 75 2.4 W 13 22 7 12 - - 0.0
24/10:00am 14.7 13.1 11.5 81 1.7 W 11 19 6 10 - - 0.0
24/09:30am 13.7 12.1 11.4 86 1.2 W 11 17 6 9 - - 0.0
24/09:00am 13.1 11.7 11.0 87 1.1 WNW 9 17 5 9 - - 0.4
24/08:30am 12.8 10.4 8.7 76 2.1 WNW 11 24 6 13 - - 0.2
24/08:00am 13.9 11.5 7.0 63 3.4 NNW 9 19 5 10 - - 0.0
24/07:30am 14.2 11.7 5.0 54 4.3 N 7 13 4 7 - - 0.0
24/07:00am 14.2 11.2 4.2 51 4.6 N 9 17 5 9 - - 0.0
24/06:30am 13.9 11.2 3.9 51 4.6 N 7 15 4 8 - - 0.0
24/06:00am 13.8 11.1 3.6 50 4.6 N 7 17 4 9 - - 0.0
24/05:30am 12.9 9.8 3.8 54 4.1 NNE 9 15 5 8 - - 0.0
24/05:00am 12.8 10.2 4.0 55 4.0 NNE 7 13 4 7 - - 0.0
24/04:30am 12.1 9.2 4.6 60 3.4 NNE 9 13 5 7 - - 0.0
24/04:00am 12.5 10.0 4.7 59 3.6 NNE 7 13 4 7 - - 0.0
24/03:30am 13.0 9.7 4.7 57 3.8 NNE 11 17 6 9 - - 0.0
24/03:00am 12.5 9.3 5.0 60 3.5 NE 11 15 6 8 - - 0.0
24/02:30am 12.8 10.5 5.5 61 3.4 NNE 7 13 4 7 - - 0.0
24/02:00am 12.5 9.9 5.9 64 3.1 NNE 9 15 5 8 - - 0.0
24/01:30am 12.7 10.0 5.8 63 3.3 NNE 9 15 5 8 - - 0.0
24/01:00am 12.7 10.4 5.8 63 3.3 NNE 7 13 4 7 - - 0.0
24/12:30am 12.4 10.3 5.6 63 3.2 NNE 6 15 3 8 - - 0.0
24/12:00am 12.6 10.4 6.0 64 3.1 NNE 7 13 4 7 - - 0.0
 
Date/Time
EST
Tmp

°C
App
Tmp
°C
Dew
Point
°C
Rel
Hum
%
Delta-T

°C
Wind Press
QNH
hPa
Press
MSL
hPa
Rain
since
9 am
mm
Dir
 
Spd
km/h
Gust
km/h
Spd
kts
Gust
kts
23/11:30pm 12.9 10.4 6.5 65 3.1 NNE 9 15 5 8 - - 0.0
23/11:00pm 13.0 10.9 6.6 65 3.1 N 7 13 4 7 - - 0.0
23/10:30pm 12.9 11.0 6.9 67 2.9 NNE 6 9 3 5 - - 0.0
23/10:00pm 13.1 11.3 7.3 68 2.8 NNE 6 7 3 4 - - 0.0
23/09:30pm 13.6 12.0 7.8 68 2.9 N 6 7 3 4 - - 0.0
23/09:00pm 13.2 11.8 8.9 75 2.2 NNE 6 9 3 5 - - 0.0
23/08:30pm 12.9 11.5 9.4 79 1.8 NE 7 9 4 5 - - 0.0
23/08:00pm 11.5 11.0 9.4 87 1.1 NNE 2 4 1 2 - - 0.0
23/07:30pm 11.4 11.4 9.7 89 0.9 CALM 0 0 0 0 - - 0.0
23/07:00pm 11.8 11.8 9.7 87 1.1 CALM 0 0 0 0 - - 0.0
23/06:30pm 12.4 12.3 9.6 83 1.4 CALM 0 4 0 2 - - 0.0
23/06:00pm 13.2 13.1 9.5 78 1.9 CALM 0 0 0 0 - - 0.0
23/05:30pm 15.2 15.1 9.3 68 3.0 CALM 0 0 0 0 - - 0.0
23/05:00pm 16.9 15.9 8.8 59 4.2 WSW 4 7 2 4 - - 0.0
23/04:30pm 17.8 17.8 9.7 59 4.3 CALM 0 0 0 0 - - 0.0
23/04:00pm 17.8 16.9 7.8 52 5.1 WNW 2 4 1 2 - - 0.0
23/03:30pm 17.8 16.6 8.1 53 5.0 N 4 11 2 6 - - 0.0
23/03:00pm 17.7 16.6 6.9 49 5.4 NW 2 9 1 5 - - 0.0
23/02:30pm 17.6 17.1 9.2 58 4.4 W 2 9 1 5 - - 0.0
23/02:00pm 17.6 16.2 9.5 59 4.3 W 7 17 4 9 - - 0.0
23/01:30pm 18.0 17.2 9.6 58 4.4 WNW 4 9 2 5 - - 0.0
23/01:00pm 17.2 15.6 10.3 64 3.7 WSW 9 17 5 9 - - 0.0
23/12:30pm 16.6 16.3 10.2 66 3.4 NNW 2 7 1 4 - - 0.0
23/12:00pm 16.9 16.4 10.7 67 3.3 NNW 4 11 2 6 - - 0.0
23/11:30am 16.7 16.3 11.0 69 3.1 NNW 4 7 2 4 - - 0.0
23/11:00am 16.6 17.0 11.1 70 3.0 CALM 0 0 0 0 - - 0.0
23/10:30am 15.8 15.9 11.6 76 2.3 NNW 2 9 1 5 - - 0.0
23/10:00am 13.7 12.9 10.9 83 1.5 W 6 9 3 5 - - 0.0
23/09:30am 14.0 13.4 11.7 86 1.2 WNW 6 9 3 5 - - 0.0
23/09:00am 13.9 14.5 11.9 88 1.1 CALM 0 2 0 1 - - 9.0
23/08:30am 12.7 13.0 10.9 89 0.9 CALM 0 4 0 2 - - 9.0
23/08:00am 12.3 12.9 11.8 97 0.3 CALM 0 0 0 0 - - 9.0
23/07:30am 10.4 10.4 9.8 96 0.3 CALM 0 0 0 0 - - 9.0
23/07:00am 9.8 9.6 9.2 96 0.3 CALM 0 0 0 0 - - 9.0
23/06:30am 10.4 10.4 9.8 96 0.3 CALM 0 0 0 0 - - 9.0
23/06:00am 10.8 10.9 10.2 96 0.3 CALM 0 0 0 0 - - 9.0
23/05:30am 10.8 10.9 10.2 96 0.3 CALM 0 0 0 0 - - 9.0
23/05:00am 10.5 10.5 9.7 95 0.4 CALM 0 0 0 0 - - 9.0
23/04:30am 11.1 11.2 10.3 95 0.4 CALM 0 0 0 0 - - 9.0
23/04:00am 11.2 11.4 10.4 95 0.4 CALM 0 0 0 0 - - 9.0
23/03:30am 11.5 11.7 10.6 94 0.5 CALM 0 0 0 0 - - 9.0
23/03:00am 12.3 12.7 11.4 94 0.5 CALM 0 0 0 0 - - 9.0
23/02:30am 12.4 12.9 11.6 95 0.4 CALM 0 0 0 0 - - 9.0
23/02:00am 12.5 13.0 11.6 94 0.5 CALM 0 0 0 0 - - 9.0
23/01:30am 12.4 12.9 11.5 94 0.5 CALM 0 0 0 0 - - 9.0
23/01:00am 12.7 13.3 11.8 94 0.5 CALM 0 0 0 0 - - 9.0
23/12:30am 12.8 13.3 11.7 93 0.6 CALM 0 0 0 0 - - 9.0
23/12:00am 13.0 13.6 11.9 93 0.6 CALM 0 0 0 0 - - 9.0
 
Date/Time
EST
Tmp

°C
App
Tmp
°C
Dew
Point
°C
Rel
Hum
%
Delta-T

°C
Wind Press
QNH
hPa
Press
MSL
hPa
Rain
since
9 am
mm
Dir
 
Spd
km/h
Gust
km/h
Spd
kts
Gust
kts
22/11:30pm 13.1 13.7 11.8 92 0.7 CALM 0 0 0 0 - - 9.0
22/11:00pm 13.2 13.7 11.6 90 0.9 CALM 0 4 0 2 - - 9.0
22/10:30pm 13.3 13.9 11.9 91 0.8 CALM 0 0 0 0 - - 9.0
22/10:00pm 13.4 14.0 11.8 90 0.9 CALM 0 4 0 2 - - 9.0
22/09:30pm 13.5 13.3 11.7 89 1.0 SSE 4 7 2 4 - - 8.8
22/09:00pm 13.5 14.1 11.9 90 0.9 CALM 0 4 0 2 - - 8.8
22/08:30pm 13.6 13.9 12.2 91 0.8 SE 2 7 1 4 - - 8.8
22/08:00pm 13.8 13.4 12.5 92 0.7 SE 6 7 3 4 - - 8.8
22/07:30pm 14.4 15.2 13.6 95 0.4 S 2 4 1 2 - - 8.6
22/07:00pm 14.4 15.5 13.4 94 0.6 CALM 0 2 0 1 - - 8.6
22/06:30pm 14.4 15.5 13.4 94 0.6 CALM 0 0 0 0 - - 8.6
22/06:00pm 14.3 15.3 13.3 94 0.6 CALM 0 0 0 0 - - 8.4
22/05:30pm 14.4 15.5 13.4 94 0.6 CALM 0 0 0 0 - - 8.4
22/05:00pm 14.6 15.6 13.1 91 0.8 CALM 0 4 0 2 - - 7.6
22/04:30pm 14.8 15.8 13.2 90 0.9 CALM 0 0 0 0 - - 6.4
22/04:00pm 15.1 16.1 13.3 89 1.0 CALM 0 2 0 1 - - 6.4
22/03:30pm 15.5 16.5 13.3 87 1.2 CALM 0 0 0 0 - - 6.4
22/03:00pm 15.2 16.1 12.9 86 1.3 CALM 0 4 0 2 - - 6.4
22/02:30pm 15.1 14.9 13.0 87 1.2 NNE 6 7 3 4 - - 6.4
22/02:00pm 15.3 15.9 13.0 86 1.3 N 2 4 1 2 - - 6.4
22/01:30pm 15.3 16.0 12.2 82 1.7 CALM 0 0 0 0 - - 5.8
22/01:00pm 15.1 15.3 11.9 81 1.7 N 2 6 1 3 - - 5.8
22/12:30pm 14.7 13.9 11.1 79 1.9 NNE 6 9 3 5 - - 5.8
22/12:00pm 14.8 12.7 11.2 79 1.9 NNE 13 19 7 10 - - 5.6
22/11:30am 14.2 12.1 11.2 82 1.6 NNE 13 22 7 12 - - 5.6
22/11:00am 13.7 10.8 10.9 83 1.5 NE 17 28 9 15 - - 5.6
22/10:30am 13.0 10.5 11.1 88 1.0 NNE 15 26 8 14 - - 5.4
22/10:00am 13.1 11.2 10.5 84 1.4 NNE 11 19 6 10 - - 3.4
22/09:30am 13.1 10.5 10.8 86 1.2 NNE 15 26 8 14 - - 1.8
22/09:00am 13.0 11.7 11.1 88 1.0 NNE 9 15 5 8 - - 4.0
22/08:30am 13.1 11.4 11.2 88 1.0 NE 11 17 6 9 - - 2.6
22/08:00am 15.2 14.0 9.6 69 2.9 W 6 13 3 7 - - 0.8
22/07:30am 16.4 15.8 7.3 55 4.5 CALM 0 4 0 2 - - 0.0
22/07:00am 17.0 14.9 6.5 50 5.2 NNE 7 15 4 8 - - 0.0
22/06:30am 17.3 14.0 6.2 48 5.5 N 13 22 7 12 - - 0.0
22/06:00am 17.6 13.4 5.9 46 5.7 N 17 32 9 17 - - 0.0
22/05:30am 17.5 13.7 5.8 46 5.7 N 15 30 8 16 - - 0.0
22/05:00am 17.8 14.0 5.7 45 5.9 N 15 26 8 14 - - 0.0
22/04:30am 18.0 13.2 5.6 44 6.1 N 20 33 11 18 - - 0.0
22/04:00am 18.1 13.6 6.0 45 6.0 N 19 32 10 17 - - 0.0
22/03:30am 17.9 13.3 5.8 45 5.9 NNE 19 32 10 17 - - 0.0
22/03:00am 17.5 13.4 6.1 47 5.6 NNE 17 26 9 14 - - 0.0
22/02:30am 17.0 12.8 5.9 48 5.4 NNE 17 30 9 16 - - 0.0
22/02:00am 16.9 13.1 5.8 48 5.4 NNE 15 26 8 14 - - 0.0
22/01:30am 16.6 12.4 5.9 49 5.2 NNE 17 24 9 13 - - 0.0
22/01:00am 16.7 12.5 5.9 49 5.3 NNE 17 26 9 14 - - 0.0
22/12:30am 16.9 12.1 5.8 48 5.4 NNE 20 33 11 18 - - 0.0
22/12:00am 16.9 11.8 6.1 49 5.3 NNE 22 35 12 19 - - 0.0
 
Date/Time
EST
Tmp

°C
App
Tmp
°C
Dew
Point
°C
Rel
Hum
%
Delta-T

°C
Wind Press
QNH
hPa
Press
MSL
hPa
Rain
since
9 am
mm
Dir
 
Spd
km/h
Gust
km/h
Spd
kts
Gust
kts
21/11:30pm 16.9 11.8 6.1 49 5.3 NNE 22 33 12 18 - - 0.0

Latest Capital City Observations: Canberra | Sydney | Melbourne | Brisbane | Adelaide | Perth | Hobart | Darwin

Other Formats:

Comma delimited format used in spreadsheet applications
http://www.bom.gov.au/fwo/IDV60901/IDV60901.95867.axf

JavaScript Object Notation format (JSON) in row-major order
http://www.bom.gov.au/fwo/IDV60901/IDV60901.95867.json